Afric Star — A8KJ8 — position and weather

sailwx.info

Track history (hours):
 
Tides and Currents Weather Stations Pressure Air Temp Water Temp Dewpoint Dewpoint Depression Visibility Wind Speed Wind Dir Waves Ship Positions

Afric Star

Last reported at 2015-Apr-29 19:06 UTC. Time now 2015-May-04 03:59 UTC.
Position N 19°47' W 066°19'.

Length 158 m; draft 7.5 m.

Type: Cargo ship. MMSI: 636013069.

Date/timePositionNaut miles runAvg speedWind from/ knotsBaromVisibWave heightAir tempDewpointWater temp
2015-Apr-29 19:06N 19°47' W 066°19'  
2015-Apr-23 17:33N 36°22' W 026°14'1414.4
2015-Apr-23 16:34N 36°28' W 025°58'1414.2
2015-Apr-23 15:34N 36°34' W 025°42'1414.4
2015-Apr-23 14:34N 36°40' W 025°26'1514.6
2015-Apr-23 13:33N 36°46' W 025°10'1514.8
2015-Apr-23 12:33N 36°53' W 024°53'1515.3
2015-Apr-23 11:33N 37°01' W 024°37'1515.4
2015-Apr-23 10:34N 37°10' W 024°21'1514.7
2015-Apr-23 09:34N 37°18' W 024°05'1414.5
2015-Apr-23 08:34N 37°25' W 023°50'  
2015-Apr-20 08:22N 49°52' W 003°17'4915.3
2015-Apr-20 05:11N 50°07' W 002°04'2019.0
2015-Apr-20 04:07N 50°12' W 001°34'1120.3
2015-Apr-20 03:33N 50°15' W 001°17'2620.4
2015-Apr-20 02:18N 50°22' W 000°38'2019.0
2015-Apr-20 01:13N 50°27' W 000°07'1417.6
2015-Apr-20 00:25N 50°31' E 000°15'1416.4
2015-Apr-19 23:33N 50°35' E 000°36'1615.8
2015-Apr-19 22:33N 50°44' E 000°57'1716.3
2015-Apr-19 21:32N 50°54' E 001°17'1919.8
2015-Apr-19 20:34N 51°09' E 001°37'2020.0
2015-Apr-19 19:33N 51°26' E 001°54'  
Track history (hours):
 
Tides and Currents Weather Stations Pressure Air Temp Water Temp Dewpoint Dewpoint Depression Visibility Wind Speed Wind Dir Waves Ship Positions

Afric Star

Last reported at 2015-Apr-29 19:06 UTC. Time now 2015-May-04 03:59 UTC.
Position N 19°47' W 066°19'.

Length 158 m; draft 7.5 m.

Type: Cargo ship. MMSI: 636013069.

Date/timePositionNaut miles runAvg speedWind from/ knotsBaromVisibWave heightAir tempDewpointWater temp
2015-Apr-29 19:06N 19°47' W 066°19'  
2015-Apr-23 17:33N 36°22' W 026°14'1414.4
2015-Apr-23 16:34N 36°28' W 025°58'1414.2
2015-Apr-23 15:34N 36°34' W 025°42'1414.4
2015-Apr-23 14:34N 36°40' W 025°26'1514.6
2015-Apr-23 13:33N 36°46' W 025°10'1514.8
2015-Apr-23 12:33N 36°53' W 024°53'1515.3
2015-Apr-23 11:33N 37°01' W 024°37'1515.4
2015-Apr-23 10:34N 37°10' W 024°21'1514.7
2015-Apr-23 09:34N 37°18' W 024°05'1414.5
2015-Apr-23 08:34N 37°25' W 023°50'  
2015-Apr-20 08:22N 49°52' W 003°17'4915.3
2015-Apr-20 05:11N 50°07' W 002°04'2019.0
2015-Apr-20 04:07N 50°12' W 001°34'1120.3
2015-Apr-20 03:33N 50°15' W 001°17'2620.4
2015-Apr-20 02:18N 50°22' W 000°38'2019.0
2015-Apr-20 01:13N 50°27' W 000°07'1417.6
2015-Apr-20 00:25N 50°31' E 000°15'1416.4
2015-Apr-19 23:33N 50°35' E 000°36'1615.8
2015-Apr-19 22:33N 50°44' E 000°57'1716.3
2015-Apr-19 21:32N 50°54' E 001°17'1919.8
2015-Apr-19 20:34N 51°09' E 001°37'2020.0
2015-Apr-19 19:33N 51°26' E 001°54'  

Dump ship's entire track history